createdAt,value
2023-01-08T00:01:10.325Z,2.47
2023-01-08T00:03:47.016Z,2.43
2023-01-08T00:06:14.884Z,2.39
2023-01-08T00:08:41.727Z,2.38
2023-01-08T00:11:08.265Z,2.37
2023-01-08T00:13:34.750Z,2.35
2023-01-08T00:16:05.209Z,2.33
2023-01-08T00:18:31.829Z,2.34
2023-01-08T00:20:58.792Z,2.38
2023-01-08T00:23:25.360Z,2.39
2023-01-08T00:25:51.919Z,2.35
2023-01-08T00:28:20.315Z,2.36
2023-01-08T00:30:47.508Z,2.37
2023-01-08T00:33:13.990Z,2.38
2023-01-08T00:35:41.201Z,2.36
2023-01-08T00:38:07.925Z,2.35
2023-01-08T00:40:34.932Z,2.36
2023-01-08T00:43:01.837Z,2.37
2023-01-08T00:45:28.336Z,2.34
2023-01-08T00:47:55.053Z,2.34
2023-01-08T00:50:21.511Z,2.33
2023-01-08T00:52:48.587Z,2.32
2023-01-08T00:55:15.241Z,2.31
2023-01-08T00:57:41.760Z,2.30
2023-01-08T01:00:09.324Z,2.29
2023-01-08T01:02:36.739Z,2.30
2023-01-08T01:05:03.740Z,2.31
2023-01-08T01:07:30.673Z,2.29
2023-01-08T01:09:57.157Z,2.28
2023-01-08T01:12:23.716Z,2.29
2023-01-08T01:14:50.282Z,2.27
2023-01-08T01:17:16.719Z,2.23
2023-01-08T01:19:43.373Z,2.23
2023-01-08T01:22:09.787Z,2.25
2023-01-08T01:24:36.278Z,2.25
2023-01-08T01:27:02.818Z,2.27
2023-01-08T01:29:29.433Z,2.31
2023-01-08T01:31:57.356Z,2.33
2023-01-08T01:34:23.979Z,2.37
2023-01-08T01:36:50.949Z,2.31
2023-01-08T01:39:19.209Z,2.30
2023-01-08T01:41:46.003Z,2.34
2023-01-08T01:44:51.179Z,2.34
2023-01-08T01:47:26.473Z,2.32
2023-01-08T01:49:57.221Z,2.23
2023-01-08T01:52:25.026Z,2.25
2023-01-08T01:54:52.079Z,2.26
2023-01-08T01:57:18.551Z,2.29
2023-01-08T01:59:47.011Z,2.29
2023-01-08T02:02:13.843Z,2.28
2023-01-08T02:04:40.962Z,2.20
2023-01-08T02:07:30.407Z,2.20
2023-01-08T02:10:05.745Z,2.20
2023-01-08T02:12:38.640Z,2.25
2023-01-08T02:15:17.827Z,2.24
2023-01-08T02:17:54.900Z,2.22
2023-01-08T02:20:28.465Z,2.29
2023-01-08T02:23:18.130Z,2.33
2023-01-08T02:25:56.897Z,2.36
2023-01-08T02:28:24.221Z,2.32
2023-01-08T02:30:51.936Z,2.37
2023-01-08T02:33:18.433Z,2.36
2023-01-08T02:35:48.209Z,2.34
2023-01-08T02:38:16.707Z,2.32
2023-01-08T02:40:52.839Z,2.30
2023-01-08T02:43:45.620Z,2.28
2023-01-08T02:46:19.085Z,2.25
2023-01-08T02:48:47.933Z,2.28
2023-01-08T02:51:14.435Z,2.26
2023-01-08T02:53:44.204Z,2.30
2023-01-08T02:56:13.650Z,2.29
2023-01-08T02:58:41.046Z,2.28
2023-01-08T03:01:09.274Z,2.28
2023-01-08T03:03:38.026Z,2.27
2023-01-08T03:06:07.017Z,2.27
2023-01-08T03:08:35.430Z,2.26
2023-01-08T03:11:06.252Z,2.16
2023-01-08T03:13:38.795Z,2.17
2023-01-08T03:16:09.458Z,2.16
2023-01-08T03:18:39.453Z,2.13
2023-01-08T03:21:06.199Z,2.13
2023-01-08T03:23:34.385Z,2.11
2023-01-08T03:26:02.122Z,2.09
2023-01-08T03:28:32.698Z,2.08
2023-01-08T03:30:59.927Z,2.10
2023-01-08T03:33:27.336Z,2.14
2023-01-08T03:35:56.366Z,2.13
2023-01-08T03:38:25.875Z,2.09
2023-01-08T03:40:56.156Z,2.10
2023-01-08T03:43:22.875Z,2.12
2023-01-08T03:45:51.358Z,2.13
2023-01-08T03:48:19.209Z,2.10
2023-01-08T03:50:45.947Z,2.09
2023-01-08T03:53:12.490Z,2.10
2023-01-08T03:55:39.025Z,2.09
2023-01-08T03:58:05.648Z,2.09
2023-01-08T04:00:32.128Z,2.04
2023-01-08T04:02:58.556Z,2.05
2023-01-08T04:05:25.279Z,2.05
2023-01-08T04:07:54.431Z,2.03
2023-01-08T04:10:21.001Z,2.04
2023-01-08T04:12:47.453Z,2.03
2023-01-08T04:15:13.938Z,2.02
2023-01-08T04:17:40.484Z,2.00
2023-01-08T04:20:07.262Z,2.01
2023-01-08T04:22:35.019Z,2.02
2023-01-08T04:25:01.462Z,2.03
2023-01-08T04:27:27.985Z,2.03
2023-01-08T04:29:54.589Z,2.05
2023-01-08T04:32:21.126Z,2.05
2023-01-08T04:34:47.623Z,2.03
2023-01-08T04:37:14.114Z,2.02
2023-01-08T04:39:40.544Z,1.97
2023-01-08T04:42:07.017Z,1.97
2023-01-08T04:44:33.534Z,2.00
2023-01-08T04:47:00.122Z,2.02
2023-01-08T04:49:26.604Z,2.01
2023-01-08T04:51:53.039Z,2.01
2023-01-08T04:54:19.519Z,2.04
2023-01-08T04:56:46.098Z,2.06
2023-01-08T04:59:13.080Z,2.09
2023-01-08T05:01:39.650Z,2.12
2023-01-08T05:04:06.158Z,2.14
2023-01-08T05:06:32.769Z,2.13
2023-01-08T05:08:59.382Z,2.14
2023-01-08T05:11:27.295Z,2.14
2023-01-08T05:13:54.341Z,2.15
2023-01-08T05:16:20.892Z,2.17
2023-01-08T05:18:47.477Z,2.17
2023-01-08T05:21:14.481Z,2.20
2023-01-08T05:23:43.654Z,2.22
2023-01-08T05:26:10.137Z,2.21
2023-01-08T05:28:36.612Z,2.18
2023-01-08T05:31:03.073Z,2.23
2023-01-08T05:33:29.808Z,2.25
2023-01-08T05:35:56.272Z,2.26
2023-01-08T05:38:22.797Z,2.30
2023-01-08T05:40:52.789Z,2.28
2023-01-08T05:43:19.375Z,2.25
2023-01-08T05:45:45.881Z,2.26
2023-01-08T05:48:12.364Z,2.25
2023-01-08T05:50:38.888Z,2.24
2023-01-08T05:53:06.788Z,2.23
2023-01-08T05:55:33.596Z,2.16
2023-01-08T05:58:04.186Z,2.15
2023-01-08T06:00:31.515Z,2.11
2023-01-08T06:02:58.008Z,2.10
2023-01-08T06:05:24.669Z,2.02
2023-01-08T06:07:51.168Z,2.02
2023-01-08T06:10:17.581Z,2.01
2023-01-08T06:12:44.041Z,2.06
2023-01-08T06:15:11.266Z,2.14
2023-01-08T06:17:37.865Z,2.32
2023-01-08T06:20:04.744Z,2.51
2023-01-08T06:22:33.441Z,2.67
2023-01-08T06:25:00.449Z,2.91
2023-01-08T06:27:26.939Z,3.23
2023-01-08T06:29:53.536Z,3.58
2023-01-08T06:32:20.036Z,3.94
2023-01-08T06:34:46.536Z,4.47
2023-01-08T06:37:13.130Z,5.21
2023-01-08T06:39:39.581Z,6.17
2023-01-08T06:42:06.015Z,7.00
2023-01-08T06:44:32.556Z,7.85
2023-01-08T06:46:59.161Z,8.75
2023-01-08T06:49:25.739Z,9.48
2023-01-08T06:51:52.276Z,10.21
2023-01-08T06:54:18.841Z,11.07
2023-01-08T06:56:53.719Z,11.93
2023-01-08T06:59:21.080Z,12.61
2023-01-08T07:01:47.985Z,13.51
2023-01-08T07:04:14.565Z,14.11
2023-01-08T07:06:41.266Z,14.74
2023-01-08T07:09:08.908Z,15.12
2023-01-08T07:11:35.410Z,14.86
2023-01-08T07:14:01.868Z,14.39
2023-01-08T07:16:28.430Z,13.92
2023-01-08T07:18:55.838Z,13.53
2023-01-08T07:21:22.816Z,13.19
2023-01-08T07:23:49.384Z,12.91
2023-01-08T07:26:16.305Z,12.67
2023-01-08T07:28:43.132Z,12.62
2023-01-08T07:31:09.834Z,12.59
2023-01-08T07:33:36.439Z,12.42
2023-01-08T07:36:03.196Z,12.24
2023-01-08T07:38:29.639Z,12.07
2023-01-08T07:40:58.971Z,12.06
2023-01-08T07:43:25.785Z,12.11
2023-01-08T07:45:52.464Z,12.07
2023-01-08T07:48:18.997Z,12.07
2023-01-08T07:50:46.080Z,12.10
2023-01-08T07:53:17.088Z,12.13
2023-01-08T07:55:43.658Z,12.18
2023-01-08T07:58:13.915Z,12.20
2023-01-08T08:00:40.563Z,12.16
2023-01-08T08:03:08.529Z,12.19
2023-01-08T08:05:35.501Z,12.24
2023-01-08T08:08:06.581Z,12.27
2023-01-08T08:10:33.288Z,12.35
2023-01-08T08:12:59.798Z,12.44
2023-01-08T08:15:26.197Z,12.52
2023-01-08T08:17:52.890Z,12.52
2023-01-08T08:20:19.335Z,12.36
2023-01-08T08:22:45.809Z,12.38
2023-01-08T08:25:14.553Z,12.40
2023-01-08T08:27:42.657Z,12.34
2023-01-08T08:30:13.853Z,12.28
2023-01-08T08:32:40.337Z,12.39
2023-01-08T08:35:06.917Z,12.23
2023-01-08T08:37:33.373Z,11.82
2023-01-08T08:39:59.837Z,11.43
2023-01-08T08:42:26.295Z,11.08
2023-01-08T08:44:52.895Z,10.82
2023-01-08T08:47:19.961Z,10.76
2023-01-08T08:49:46.413Z,10.78
2023-01-08T08:52:13.191Z,10.70
2023-01-08T08:54:40.897Z,10.74
2023-01-08T08:57:08.591Z,10.47
2023-01-08T08:59:35.598Z,10.18
2023-01-08T09:02:02.829Z,10.37
2023-01-08T09:04:33.133Z,10.55
2023-01-08T09:07:00.052Z,10.59
2023-01-08T09:09:26.617Z,10.41
2023-01-08T09:11:53.458Z,10.25
2023-01-08T09:15:09.336Z,10.20
2023-01-08T09:17:37.179Z,10.17
2023-01-08T09:20:07.012Z,10.21
2023-01-08T09:22:35.192Z,10.29
2023-01-08T09:25:03.269Z,10.34
2023-01-08T09:27:31.254Z,10.42
2023-01-08T09:29:59.203Z,10.40
2023-01-08T09:32:27.249Z,10.20
2023-01-08T09:34:57.370Z,10.08
2023-01-08T09:37:25.343Z,10.06
2023-01-08T09:40:01.777Z,10.05
2023-01-08T09:42:31.170Z,9.84
2023-01-08T09:45:00.109Z,9.73
2023-01-08T09:47:31.412Z,9.76
2023-01-08T09:50:02.191Z,9.86
2023-01-08T09:52:31.528Z,9.89
2023-01-08T09:55:02.629Z,9.90
2023-01-08T09:57:30.601Z,9.86
2023-01-08T09:59:58.630Z,9.88
2023-01-08T10:02:29.087Z,9.79
2023-01-08T10:04:58.580Z,9.79
2023-01-08T10:07:27.531Z,9.72
2023-01-08T10:09:56.086Z,9.66
2023-01-08T10:12:33.857Z,9.72
2023-01-08T10:15:03.683Z,9.80
2023-01-08T10:17:37.191Z,9.80
2023-01-08T10:20:12.661Z,9.71
2023-01-08T10:22:41.030Z,9.74
2023-01-08T10:25:13.907Z,9.76
2023-01-08T10:27:57.441Z,9.73
2023-01-08T10:30:31.531Z,9.78
2023-01-08T10:33:04.322Z,9.78
2023-01-08T10:35:36.077Z,9.90
2023-01-08T10:38:04.615Z,10.06
2023-01-08T10:40:38.402Z,10.22
2023-01-08T10:43:15.047Z,10.33
2023-01-08T10:45:44.018Z,10.45
2023-01-08T10:48:19.348Z,10.41
2023-01-08T10:50:47.967Z,10.40
2023-01-08T10:53:24.612Z,10.40
2023-01-08T10:55:59.795Z,10.58
2023-01-08T10:58:29.342Z,10.75
2023-01-08T11:01:10.025Z,10.77
2023-01-08T11:03:38.078Z,10.64
2023-01-08T11:06:13.576Z,10.58
2023-01-08T11:08:51.589Z,10.67
2023-01-08T11:11:20.117Z,10.78
2023-01-08T11:13:56.712Z,10.88
2023-01-08T11:16:31.841Z,10.92
2023-01-08T11:19:00.059Z,10.95
2023-01-08T11:21:33.025Z,10.94
2023-01-08T11:24:19.882Z,10.94
2023-01-08T11:26:52.365Z,10.99
2023-01-08T11:29:52.569Z,11.03
2023-01-08T11:32:25.686Z,11.09
2023-01-08T11:34:53.832Z,11.01
2023-01-08T11:37:22.873Z,10.92
2023-01-08T11:39:51.867Z,10.94
2023-01-08T11:42:34.941Z,10.98
2023-01-08T11:45:03.350Z,10.89
2023-01-08T11:47:44.857Z,10.85
2023-01-08T11:50:24.805Z,10.62
2023-01-08T11:53:11.447Z,10.50
2023-01-08T11:55:45.391Z,10.34
2023-01-08T11:58:28.537Z,10.22
2023-01-08T12:01:06.191Z,10.21
2023-01-08T12:03:37.274Z,10.16
2023-01-08T12:06:13.467Z,10.13
2023-01-08T12:08:51.023Z,9.94
2023-01-08T12:11:30.011Z,9.86
2023-01-08T12:14:16.402Z,9.78
2023-01-08T12:17:03.146Z,9.76
2023-01-08T12:19:31.284Z,9.74
2023-01-08T12:22:01.999Z,9.75
2023-01-08T12:24:34.491Z,9.71
2023-01-08T12:27:08.608Z,9.63
2023-01-08T12:30:01.685Z,9.56
2023-01-08T12:32:38.847Z,9.58
2023-01-08T12:35:23.299Z,9.51
2023-01-08T12:38:05.568Z,9.48
2023-01-08T12:40:35.953Z,9.53
2023-01-08T12:43:08.083Z,9.56
2023-01-08T12:45:40.346Z,9.56
2023-01-08T12:48:12.068Z,9.52
2023-01-08T12:50:40.029Z,9.41
2023-01-08T12:53:30.817Z,9.45
2023-01-08T12:56:21.428Z,9.47
2023-01-08T12:58:58.648Z,9.38
2023-01-08T13:01:32.215Z,9.40
2023-01-08T13:04:02.348Z,9.45
2023-01-08T13:06:30.921Z,9.46
2023-01-08T13:09:01.510Z,9.38
2023-01-08T13:11:34.756Z,9.38
2023-01-08T13:14:06.821Z,9.34
2023-01-08T13:16:39.688Z,9.31
2023-01-08T13:19:22.187Z,9.22
2023-01-08T13:21:52.674Z,9.21
2023-01-08T13:24:37.055Z,9.18
2023-01-08T13:27:17.110Z,9.16
2023-01-08T13:29:52.422Z,9.17
2023-01-08T13:32:49.289Z,9.18
2023-01-08T13:35:17.801Z,9.13
2023-01-08T13:37:47.421Z,9.12
2023-01-08T13:40:34.181Z,9.11
2023-01-08T13:43:03.694Z,9.09
2023-01-08T13:45:32.060Z,9.11
2023-01-08T13:48:00.669Z,9.07
2023-01-08T13:50:31.506Z,9.05
2023-01-08T13:53:03.975Z,9.04
2023-01-08T13:55:54.670Z,8.95
2023-01-08T13:58:28.229Z,8.92
2023-01-08T14:00:58.069Z,8.95
2023-01-08T14:03:30.938Z,8.95
2023-01-08T14:06:31.599Z,8.94
2023-01-08T14:09:01.133Z,8.91
2023-01-08T14:11:35.546Z,8.89
2023-01-08T14:14:04.351Z,8.83
2023-01-08T14:16:33.632Z,8.83
2023-01-08T14:19:01.945Z,8.82
2023-01-08T14:21:29.953Z,8.77
2023-01-08T14:23:58.202Z,8.73
2023-01-08T14:26:37.269Z,8.68
2023-01-08T14:29:12.440Z,8.65
2023-01-08T14:31:45.644Z,8.60
2023-01-08T14:34:14.669Z,8.55
2023-01-08T14:36:43.054Z,8.49
2023-01-08T14:39:23.609Z,8.45
2023-01-08T14:42:12.464Z,8.40
2023-01-08T14:44:42.598Z,8.30
2023-01-08T14:47:20.933Z,8.24
2023-01-08T14:49:51.681Z,8.24
2023-01-08T14:52:21.353Z,8.20
2023-01-08T14:54:54.130Z,8.15
2023-01-08T14:57:27.380Z,8.07
2023-01-08T14:59:57.457Z,7.97
2023-01-08T15:02:33.719Z,7.81
2023-01-08T15:05:14.381Z,7.74
2023-01-08T15:07:44.190Z,7.72
2023-01-08T15:10:31.565Z,7.69
2023-01-08T15:13:01.111Z,7.64
2023-01-08T15:15:30.531Z,7.61
2023-01-08T15:17:59.468Z,7.57
2023-01-08T15:20:31.216Z,7.53
2023-01-08T15:22:59.455Z,7.50
2023-01-08T15:25:28.684Z,7.40
2023-01-08T15:28:01.178Z,7.28
2023-01-08T15:30:39.813Z,7.14
2023-01-08T15:33:19.679Z,6.98
2023-01-08T15:35:47.952Z,6.83
2023-01-08T15:38:17.166Z,6.68
2023-01-08T15:40:46.871Z,6.52
2023-01-08T15:43:16.271Z,6.39
2023-01-08T15:45:45.733Z,6.23
2023-01-08T15:48:14.318Z,6.10
2023-01-08T15:50:44.262Z,5.97
2023-01-08T15:53:19.184Z,5.85
2023-01-08T15:55:47.419Z,5.75
2023-01-08T15:58:15.929Z,5.64
2023-01-08T16:00:45.386Z,5.56
2023-01-08T16:03:17.375Z,5.45
2023-01-08T16:05:45.513Z,5.35
2023-01-08T16:08:13.454Z,5.14
2023-01-08T16:10:41.362Z,4.96
2023-01-08T16:13:11.894Z,4.81
2023-01-08T16:15:40.325Z,4.70
2023-01-08T16:18:08.369Z,4.61
2023-01-08T16:20:36.811Z,4.46
2023-01-08T16:23:04.800Z,4.39
2023-01-08T16:25:32.950Z,4.33
2023-01-08T16:28:03.803Z,4.30
2023-01-08T16:30:31.814Z,4.29
2023-01-08T16:32:59.870Z,4.23
2023-01-08T16:35:27.849Z,4.22
2023-01-08T16:37:56.613Z,4.19
2023-01-08T16:40:24.564Z,4.11
2023-01-08T16:42:52.426Z,4.08
2023-01-08T16:45:20.456Z,4.04
2023-01-08T16:47:48.323Z,4.00
2023-01-08T16:50:19.144Z,3.90
2023-01-08T16:52:47.202Z,3.81
2023-01-08T16:55:15.194Z,3.75
2023-01-08T16:57:43.173Z,3.76
2023-01-08T17:00:11.286Z,3.68
2023-01-08T17:02:39.315Z,3.56
2023-01-08T17:05:07.994Z,3.41
2023-01-08T17:07:36.208Z,3.36
2023-01-08T17:10:04.806Z,3.35
2023-01-08T17:12:34.914Z,3.24
2023-01-08T17:15:02.846Z,3.13
2023-01-08T17:17:30.821Z,3.05
2023-01-08T17:19:58.952Z,2.98
2023-01-08T17:22:26.910Z,2.92
2023-01-08T17:24:54.973Z,2.88
2023-01-08T17:27:22.907Z,2.82
2023-01-08T17:29:50.759Z,2.73
2023-01-08T17:32:18.728Z,2.68
2023-01-08T17:34:47.472Z,2.61
2023-01-08T17:37:15.419Z,2.48
2023-01-08T17:39:43.871Z,2.43
2023-01-08T17:42:25.118Z,2.38
2023-01-08T17:44:57.806Z,2.31
2023-01-08T17:47:26.724Z,2.26
2023-01-08T17:49:55.896Z,2.15
2023-01-08T17:52:24.831Z,2.08
2023-01-08T17:54:53.128Z,2.01
2023-01-08T17:57:21.684Z,1.96
2023-01-08T17:59:50.861Z,1.88
2023-01-08T18:02:20.153Z,1.85
2023-01-08T18:04:49.019Z,1.79
2023-01-08T18:07:17.348Z,1.79
2023-01-08T18:09:45.368Z,1.82
2023-01-08T18:12:13.301Z,1.85
2023-01-08T18:14:42.053Z,1.83
2023-01-08T18:17:10.377Z,1.83
2023-01-08T18:19:38.539Z,1.79
2023-01-08T18:22:07.506Z,1.74
2023-01-08T18:24:35.756Z,1.67
2023-01-08T18:27:03.839Z,1.66
2023-01-08T18:29:31.823Z,1.65
2023-01-08T18:32:00.314Z,1.63
2023-01-08T18:34:28.359Z,1.60
2023-01-08T18:36:56.318Z,1.55
2023-01-08T18:39:26.640Z,1.50
2023-01-08T18:42:12.861Z,1.41
2023-01-08T18:44:40.889Z,1.30
2023-01-08T18:47:11.063Z,1.24
2023-01-08T18:49:39.635Z,1.20
2023-01-08T18:52:13.556Z,1.15
2023-01-08T18:54:41.541Z,1.09
2023-01-08T18:57:09.487Z,1.03
2023-01-08T18:59:37.592Z,0.97
2023-01-08T19:02:05.840Z,0.92
2023-01-08T19:04:34.165Z,0.89
2023-01-08T19:07:02.317Z,0.87
2023-01-08T19:09:30.251Z,0.86
2023-01-08T19:11:58.170Z,0.88
2023-01-08T19:14:26.121Z,0.91
2023-01-08T19:16:54.241Z,0.92
2023-01-08T19:19:22.529Z,0.89
2023-01-08T19:21:50.744Z,0.85
2023-01-08T19:24:18.820Z,0.84
2023-01-08T19:26:46.926Z,0.80
2023-01-08T19:29:15.031Z,0.72
2023-01-08T19:31:43.201Z,0.65
2023-01-08T19:34:11.218Z,0.65
2023-01-08T19:36:39.484Z,0.65
2023-01-08T19:39:07.720Z,0.64
2023-01-08T19:41:54.386Z,0.59
2023-01-08T19:44:22.377Z,0.56
2023-01-08T19:46:50.437Z,0.52
2023-01-08T19:49:18.329Z,0.42
2023-01-08T19:51:46.949Z,0.47
2023-01-08T19:54:15.245Z,0.47
2023-01-08T19:56:44.432Z,0.46
2023-01-08T19:59:12.563Z,0.44
2023-01-08T20:01:42.706Z,0.44
2023-01-08T20:04:11.138Z,0.44
2023-01-08T20:06:39.220Z,0.43
2023-01-08T20:09:11.395Z,0.40
2023-01-08T20:11:39.391Z,0.37
2023-01-08T20:14:07.524Z,0.34
2023-01-08T20:16:35.624Z,0.31
2023-01-08T20:19:04.579Z,0.27
2023-01-08T20:21:33.569Z,0.24
2023-01-08T20:24:05.271Z,0.23
2023-01-08T20:26:34.486Z,0.23
2023-01-08T20:29:02.668Z,0.25
2023-01-08T20:31:31.432Z,0.25
2023-01-08T20:34:00.486Z,0.26
2023-01-08T20:36:29.682Z,0.29
2023-01-08T20:38:59.339Z,0.35
2023-01-08T20:41:27.902Z,0.40
2023-01-08T20:43:56.483Z,0.44
2023-01-08T20:46:28.497Z,0.49
2023-01-08T20:49:07.893Z,0.52
2023-01-08T20:51:37.100Z,0.54
2023-01-08T20:54:06.507Z,0.58
2023-01-08T20:56:35.671Z,0.59
2023-01-08T20:59:03.976Z,0.59
2023-01-08T21:01:34.037Z,0.59
2023-01-08T21:04:03.821Z,0.60
2023-01-08T21:06:32.922Z,0.61
2023-01-08T21:09:06.867Z,0.61
2023-01-08T21:11:36.388Z,0.61
2023-01-08T21:14:05.165Z,0.62
2023-01-08T21:16:35.446Z,0.65
2023-01-08T21:19:03.984Z,0.64
2023-01-08T21:21:35.409Z,0.56
2023-01-08T21:24:04.999Z,0.50
2023-01-08T21:26:34.012Z,0.49
2023-01-08T21:29:06.309Z,0.46
2023-01-08T21:31:35.733Z,0.43
2023-01-08T21:34:04.326Z,0.42
2023-01-08T21:36:32.326Z,0.41
2023-01-08T21:39:01.478Z,0.40
2023-01-08T21:41:48.748Z,0.39
2023-01-08T21:44:37.790Z,0.37
2023-01-08T21:47:07.312Z,0.35
2023-01-08T21:49:36.214Z,0.34
2023-01-08T21:52:24.646Z,0.34
2023-01-08T21:54:53.981Z,0.31
2023-01-08T21:57:21.946Z,0.28
2023-01-08T21:59:50.544Z,0.27
2023-01-08T22:02:20.075Z,0.23
2023-01-08T22:04:48.085Z,0.21
2023-01-08T22:07:16.447Z,0.19
2023-01-08T22:09:44.471Z,0.16
2023-01-08T22:12:15.016Z,0.13
2023-01-08T22:14:45.211Z,0.11
2023-01-08T22:17:13.273Z,0.11
2023-01-08T22:19:41.450Z,0.13
2023-01-08T22:22:10.999Z,0.19
2023-01-08T22:24:40.015Z,0.26
2023-01-08T22:27:08.693Z,0.34
2023-01-08T22:29:37.140Z,0.38
2023-01-08T22:32:05.600Z,0.41
2023-01-08T22:34:34.486Z,0.48
2023-01-08T22:37:02.806Z,0.54
2023-01-08T22:39:30.897Z,0.60
2023-01-08T22:41:58.894Z,0.66
2023-01-08T22:44:27.012Z,0.72
2023-01-08T22:46:55.401Z,0.78
2023-01-08T22:49:23.547Z,0.84
2023-01-08T22:51:51.858Z,0.90
2023-01-08T22:54:19.978Z,0.95
2023-01-08T22:56:48.360Z,1.00
2023-01-08T22:59:16.310Z,1.06
2023-01-08T23:01:44.477Z,1.11
2023-01-08T23:04:12.721Z,1.16
2023-01-08T23:06:40.713Z,1.20
2023-01-08T23:09:08.639Z,1.26
2023-01-08T23:11:36.606Z,1.29
2023-01-08T23:14:04.631Z,1.33
2023-01-08T23:16:32.617Z,1.38
2023-01-08T23:19:00.763Z,1.42
2023-01-08T23:21:29.344Z,1.46
2023-01-08T23:23:57.582Z,1.49
2023-01-08T23:26:26.973Z,1.52
2023-01-08T23:28:55.798Z,1.55
2023-01-08T23:31:25.715Z,1.58
2023-01-08T23:33:53.853Z,1.62
2023-01-08T23:36:22.429Z,1.64
2023-01-08T23:38:52.164Z,1.64
2023-01-08T23:41:21.398Z,1.65
2023-01-08T23:43:50.253Z,1.64
2023-01-08T23:46:18.531Z,1.62
2023-01-08T23:48:46.443Z,1.63
2023-01-08T23:51:14.221Z,1.68
2023-01-08T23:53:42.288Z,1.74
2023-01-08T23:56:10.470Z,1.80
2023-01-08T23:58:38.502Z,1.85
